Time;durP1;ratioP1;P1;durP2;ratioP2;P2;SDS_P1;SDS_P2;PMS_P1;PMS_P2;Temp;Humidity;BMP_temperature;BMP_pressure;BME280_temperature;BME280_humidity;BME280_pressure;Samples;Min_cycle;Max_cycle;Signal;HPM_P1;HPM_P2
2022/11/29 00:02:13;;;;;;;27.60;7.60;;;;;;;19.13;55.62;100069.53;5054968;28;20155;-63
2022/11/29 00:04:39;;;;;;;14.40;7.43;;;;;;;19.11;55.38;100066.22;5074210;28;20199;-63
2022/11/29 00:07:04;;;;;;;24.00;7.50;;;;;;;19.11;55.42;100079.72;5074227;28;20175;-63
2022/11/29 00:09:30;;;;;;;17.70;7.00;;;;;;;19.09;55.22;100074.41;5074887;28;20266;-63
2022/11/29 00:12:13;;;;;;;22.10;6.80;;;;;;;19.07;55.40;100078.84;5073161;28;20201;-63
2022/11/29 00:14:39;;;;;;;16.50;6.33;;;;;;;19.04;55.53;100080.47;5076763;28;20182;-62
2022/11/29 00:17:04;;;;;;;18.30;8.20;;;;;;;19.02;55.40;100071.44;5092105;28;20452;-64
2022/11/29 00:19:31;;;;;;;14.43;6.85;;;;;;;19.09;55.03;100080.13;5091792;28;20440;-63
2022/11/29 00:21:56;;;;;;;13.80;5.90;;;;;;;19.00;55.40;100079.59;5093548;28;20189;-63
2022/11/29 00:24:22;;;;;;;16.50;6.40;;;;;;;18.98;55.26;100082.03;5074987;28;20420;-64
2022/11/29 00:26:47;;;;;;;18.40;7.00;;;;;;;18.97;55.08;100080.34;5092728;28;20159;-63
2022/11/29 00:29:13;;;;;;;15.73;6.70;;;;;;;18.96;55.30;100080.78;5094492;28;20163;-63
2022/11/29 00:31:38;;;;;;;18.30;6.47;;;;;;;18.94;55.35;100072.56;5077176;28;20235;-63
2022/11/29 00:34:05;;;;;;;16.23;6.10;;;;;;;18.94;55.45;100072.56;5074785;28;20167;-62
2022/11/29 00:36:34;;;;;;;14.50;6.30;;;;;;;18.98;55.27;100076.31;5091274;28;20177;-63
2022/11/29 00:39:00;;;;;;;17.40;6.20;;;;;;;18.97;55.53;100077.50;5090025;28;20409;-63
2022/11/29 00:41:26;;;;;;;16.60;7.23;;;;;;;18.95;55.55;100079.94;5073283;28;20533;-63
2022/11/29 00:43:51;;;;;;;17.50;6.17;;;;;;;18.94;55.41;100081.16;5072850;28;20402;-62
2022/11/29 00:46:17;;;;;;;15.17;5.37;;;;;;;18.94;55.65;100080.31;5080446;28;20199;-62
2022/11/29 00:48:42;;;;;;;20.40;6.90;;;;;;;18.90;55.46;100086.00;5068390;28;20280;-62
2022/11/29 00:51:08;;;;;;;20.80;6.07;;;;;;;18.93;55.48;100085.22;5071927;28;20858;-62
2022/11/29 00:53:33;;;;;;;14.50;5.47;;;;;;;18.93;55.33;100078.69;5071507;28;20229;-62
2022/11/29 00:55:59;;;;;;;10.23;5.60;;;;;;;18.98;54.77;100076.31;5089382;28;20663;-62
2022/11/29 00:58:24;;;;;;;11.17;5.47;;;;;;;18.91;55.21;100084.78;5093010;28;20191;-62
2022/11/29 01:00:52;;;;;;;11.90;5.40;;;;;;;18.93;55.06;100088.09;5086135;28;20525;-62
2022/11/29 01:03:18;;;;;;;15.17;6.00;;;;;;;18.91;55.25;100084.78;5067970;28;20524;-62
2022/11/29 01:05:43;;;;;;;13.47;4.50;;;;;;;18.90;55.06;100085.16;5072484;28;20453;-62
2022/11/29 01:08:09;;;;;;;12.40;5.00;;;;;;;18.94;55.20;100089.72;5072071;28;20191;-62
2022/11/29 01:10:34;;;;;;;19.20;5.10;;;;;;;18.93;55.17;100093.81;5085453;28;20692;-62
2022/11/29 01:13:00;;;;;;;19.43;5.40;;;;;;;18.95;54.91;100093.41;5081823;28;20179;-62
2022/11/29 01:15:26;;;;;;;11.50;5.10;;;;;;;18.96;54.88;100090.16;5094922;28;20630;-62
2022/11/29 01:17:52;;;;;;;11.03;5.13;;;;;;;19.00;54.61;100093.06;5094650;28;20213;-63
2022/11/29 01:20:17;;;;;;;13.80;5.73;;;;;;;18.98;54.45;100089.78;5059638;28;20184;-63
2022/11/29 01:22:43;;;;;;;9.17;4.83;;;;;;;19.13;54.30;100088.75;5094902;28;20431;-63
2022/11/29 01:25:10;;;;;;;16.03;5.23;;;;;;;19.11;54.26;100086.25;5085973;28;20237;-63
2022/11/29 01:27:35;;;;;;;10.73;4.40;;;;;;;19.03;54.65;100096.00;5061396;28;20536;-63
2022/11/29 01:30:01;;;;;;;16.70;5.10;;;;;;;18.99;54.70;100091.41;5071374;28;20417;-63
2022/11/29 01:32:26;;;;;;;15.70;5.10;;;;;;;18.98;54.82;100093.47;5075854;28;20193;-63
2022/11/29 01:34:52;;;;;;;11.63;5.40;;;;;;;18.97;54.60;100091.78;5073787;28;20300;-63
2022/11/29 01:37:17;;;;;;;19.03;5.43;;;;;;;19.00;54.83;100102.47;5075807;28;20187;-64
2022/11/29 01:39:42;;;;;;;10.47;5.33;;;;;;;18.98;54.97;100098.34;5075529;28;20175;-63
2022/11/29 01:42:10;;;;;;;9.50;4.97;;;;;;;18.97;54.93;100102.44;5075546;28;20666;-63
2022/11/29 01:44:35;;;;;;;10.03;4.70;;;;;;;18.97;55.07;100097.53;5057583;28;20616;-63
2022/11/29 01:47:00;;;;;;;14.60;4.83;;;;;;;18.97;55.45;100102.44;5074562;28;20420;-63
2022/11/29 01:49:30;;;;;;;15.80;5.53;;;;;;;18.97;55.26;100097.53;5074950;28;20239;-63
2022/11/29 01:52:20;;;;;;;10.50;4.60;;;;;;;18.93;55.40;100105.25;5074832;28;20651;-63
2022/11/29 01:54:47;;;;;;;19.60;5.13;;;;;;;18.94;55.31;100098.31;5050880;28;20488;-63
2022/11/29 01:57:12;;;;;;;8.53;4.03;;;;;;;18.97;55.35;100106.09;5054541;28;20450;-63
2022/11/29 01:59:42;;;;;;;11.63;4.50;;;;;;;18.98;55.35;100099.19;5053139;28;20430;-63
2022/11/29 02:02:15;;;;;;;12.10;4.43;;;;;;;18.95;55.54;100102.81;5029430;28;20191;-63
2022/11/29 02:04:41;;;;;;;14.50;4.90;;;;;;;18.94;55.49;100104.03;5033054;28;20473;-63
2022/11/29 02:07:07;;;;;;;9.53;4.37;;;;;;;18.93;55.69;100101.56;5020535;28;20434;-63
2022/11/29 02:09:32;;;;;;;10.17;4.10;;;;;;;18.90;55.83;100103.16;5020714;28;20455;-63
2022/11/29 02:12:15;;;;;;;12.67;4.93;;;;;;;18.92;55.68;100097.88;5054607;28;20183;-63
2022/11/29 02:14:50;;;;;;;11.00;3.97;;;;;;;18.90;55.91;100097.44;5036954;28;20179;-63
2022/11/29 02:17:41;;;;;;;10.03;4.20;;;;;;;18.88;55.96;100091.28;5054668;28;20877;-64
2022/11/29 02:20:32;;;;;;;8.83;4.30;;;;;;;18.88;55.87;100087.59;5055005;28;20913;-63
2022/11/29 02:23:31;;;;;;;10.33;3.70;;;;;;;18.93;55.98;100096.69;5054449;28;20401;-63
2022/11/29 02:26:19;;;;;;;9.10;4.23;;;;;;;18.93;56.00;100092.97;5055037;28;20453;-63
2022/11/29 02:29:35;;;;;;;10.07;4.97;;;;;;;18.91;56.02;100087.63;5054447;28;20452;-63
2022/11/29 02:32:33;;;;;;;10.53;4.60;;;;;;;18.93;56.22;100084.41;5036838;28;20784;-63
2022/11/29 02:35:14;;;;;;;11.73;4.47;;;;;;;18.91;56.24;100087.63;5036534;28;20410;-63
2022/11/29 02:38:05;;;;;;;12.17;5.50;;;;;;;18.87;56.28;100086.75;5054427;28;20454;-63
2022/11/29 02:40:38;;;;;;;10.00;4.70;;;;;;;18.89;56.43;100084.34;5036433;28;21114;-63
2022/11/29 02:43:09;;;;;;;8.50;4.53;;;;;;;18.85;56.41;100083.47;5036098;28;20511;-63
2022/11/29 02:45:43;;;;;;;11.43;4.50;;;;;;;18.86;56.49;100085.13;5036430;28;20413;-64
2022/11/29 02:48:45;;;;;;;13.27;4.50;;;;;;;18.90;56.33;100091.72;5032432;28;20411;-63
2022/11/29 02:51:19;;;;;;;8.70;3.90;;;;;;;18.84;56.86;100093.28;5034020;28;20417;-63
2022/11/29 02:54:12;;;;;;;9.87;3.90;;;;;;;18.87;56.59;100092.47;5016605;28;20470;-63
2022/11/29 02:56:50;;;;;;;9.60;4.40;;;;;;;18.86;56.57;100090.03;5036165;28;20430;-63
2022/11/29 02:59:33;;;;;;;14.40;3.90;;;;;;;18.86;56.58;100085.13;5035964;28;20417;-63
2022/11/29 03:02:36;;;;;;;6.93;3.93;;;;;;;18.86;56.62;100087.97;5037977;28;20495;-63
2022/11/29 03:05:26;;;;;;;10.97;4.10;;;;;;;18.92;56.50;100092.13;5052729;28;20847;-64
2022/11/29 03:08:09;;;;;;;7.47;3.30;;;;;;;18.85;56.58;100091.22;5053711;28;20897;-63
2022/11/29 03:11:08;;;;;;;9.20;3.80;;;;;;;18.86;56.80;100090.03;5054174;28;20433;-63
2022/11/29 03:13:36;;;;;;;9.50;3.70;;;;;;;18.83;56.79;100094.50;5052829;28;20889;-64
2022/11/29 03:16:37;;;;;;;8.60;4.53;;;;;;;18.88;56.69;100093.31;5054212;28;20415;-63
2022/11/29 03:19:40;;;;;;;8.27;3.77;;;;;;;18.84;56.82;100104.72;5007086;28;20512;-63
2022/11/29 03:22:31;;;;;;;8.03;4.10;;;;;;;18.81;56.95;100110.41;5034446;28;20575;-64
2022/11/29 03:25:06;;;;;;;8.23;3.80;;;;;;;18.84;56.94;100116.16;5018531;28;20411;-64
2022/11/29 03:27:56;;;;;;;9.40;3.70;;;;;;;18.84;57.01;100113.31;5016291;28;20482;-64
2022/11/29 03:30:22;;;;;;;8.57;3.50;;;;;;;18.85;56.96;100119.81;5034441;28;20407;-64
2022/11/29 03:32:53;;;;;;;7.43;3.63;;;;;;;18.83;56.87;100107.97;5016163;28;20802;-64
2022/11/29 03:35:37;;;;;;;8.07;4.00;;;;;;;18.84;56.98;100119.03;5032949;28;20160;-64
2022/11/29 03:38:13;;;;;;;9.53;3.37;;;;;;;18.83;57.28;100125.97;5033344;28;20946;-64
2022/11/29 03:41:16;;;;;;;9.27;3.77;;;;;;;18.85;56.73;100123.53;5022650;28;20429;-64
2022/11/29 03:43:56;;;;;;;10.07;3.40;;;;;;;18.79;57.16;100127.94;5033309;28;20434;-64
2022/11/29 03:46:53;;;;;;;9.13;4.00;;;;;;;18.81;57.19;100128.38;5036629;28;20476;-64
2022/11/29 03:49:52;;;;;;;9.10;3.00;;;;;;;18.81;57.14;100134.09;5037374;28;20438;-64
2022/11/29 03:52:30;;;;;;;7.17;3.50;;;;;;;18.82;57.12;100135.72;5016843;28;20797;-64
2022/11/29 03:55:04;;;;;;;17.00;4.30;;;;;;;18.81;57.01;100128.38;5035630;28;20475;-64
2022/11/29 03:57:49;;;;;;;8.63;3.30;;;;;;;18.79;57.34;100136.53;5052973;28;20454;-64
2022/11/29 04:00:15;;;;;;;10.50;3.40;;;;;;;18.79;57.29;100132.81;5017612;28;20399;-64
2022/11/29 04:02:46;;;;;;;5.43;3.40;;;;;;;18.81;57.25;100134.09;5016525;28;20565;-64
2022/11/29 04:05:28;;;;;;;6.10;3.83;;;;;;;18.78;57.22;100132.00;5015831;28;20220;-65
2022/11/29 04:08:11;;;;;;;8.00;4.03;;;;;;;18.80;57.32;100138.16;5033640;28;20403;-64
2022/11/29 04:10:58;;;;;;;10.40;3.17;;;;;;;18.78;57.34;100136.91;5040063;28;20524;-64
2022/11/29 04:13:45;;;;;;;6.73;3.43;;;;;;;18.79;57.34;100135.69;5053509;28;20407;-64
2022/11/29 04:16:31;;;;;;;6.20;3.50;;;;;;;18.79;57.35;100139.38;5052907;28;20426;-64
2022/11/29 04:19:31;;;;;;;6.97;4.03;;;;;;;18.77;57.42;100138.91;5052959;28;20466;-64
2022/11/29 04:22:13;;;;;;;8.57;3.60;;;;;;;18.80;57.91;100135.31;5053578;28;20417;-64
2022/11/29 04:24:50;;;;;;;6.80;3.13;;;;;;;18.79;57.66;100138.53;5037733;28;20421;-64
2022/11/29 04:27:29;;;;;;;7.87;3.43;;;;;;;18.78;57.38;100152.03;5036192;28;20418;-64
2022/11/29 04:30:06;;;;;;;6.10;3.50;;;;;;;18.81;57.54;100148.38;5053443;28;21127;-64
2022/11/29 04:33:12;;;;;;;7.53;3.47;;;;;;;18.74;57.38;100145.44;5019419;28;20842;-64
2022/11/29 04:35:49;;;;;;;6.40;3.40;;;;;;;18.76;57.47;100157.28;5038105;28;21131;-64
2022/11/29 04:38:36;;;;;;;6.80;3.50;;;;;;;18.79;57.53;100156.53;5035305;28;20458;-64
2022/11/29 04:41:20;;;;;;;6.70;3.87;;;;;;;18.75;57.58;100158.50;5053414;28;20437;-64
2022/11/29 04:44:10;;;;;;;7.90;3.40;;;;;;;18.78;57.47;100160.63;5053108;28;20406;-64
2022/11/29 04:46:50;;;;;;;6.60;2.90;;;;;;;18.79;57.65;100162.25;5055726;28;20403;-64
2022/11/29 04:49:31;;;;;;;9.70;4.47;;;;;;;18.78;57.71;100149.19;5056370;28;20402;-64
2022/11/29 04:52:27;;;;;;;5.97;2.90;;;;;;;18.77;57.44;100161.00;5038722;28;20418;-64
2022/11/29 04:54:58;;;;;;;6.37;3.10;;;;;;;18.76;57.67;100165.88;5064710;28;20465;-64
2022/11/29 04:58:00;;;;;;;6.40;3.47;;;;;;;18.79;57.37;100170.84;5055312;28;20457;-64
2022/11/29 05:00:26;;;;;;;11.47;3.70;;;;;;;18.76;57.58;100170.78;4990238;28;20511;-64
2022/11/29 05:02:59;;;;;;;6.33;3.33;;;;;;;18.81;57.45;100167.59;5054360;28;20422;-64
2022/11/29 05:05:48;;;;;;;8.30;3.23;;;;;;;18.77;57.71;100170.38;5075492;28;20199;-64
2022/11/29 05:08:58;;;;;;;4.80;2.80;;;;;;;18.79;57.58;100176.56;5058748;28;20507;-64
2022/11/29 05:11:55;;;;;;;5.10;3.13;;;;;;;18.77;57.63;100176.09;4994294;28;20455;-64
2022/11/29 05:14:44;;;;;;;7.87;3.57;;;;;;;18.77;57.74;100167.53;4989588;28;20468;-64
2022/11/29 05:17:25;;;;;;;4.37;2.60;;;;;;;18.79;57.87;100172.84;5060901;28;20928;-64
2022/11/29 05:19:59;;;;;;;7.90;3.10;;;;;;;18.82;57.68;100167.19;5059120;28;20421;-64
2022/11/29 05:22:25;;;;;;;5.70;3.00;;;;;;;18.78;57.32;100174.06;5076802;28;20420;-64
2022/11/29 05:24:52;;;;;;;6.00;3.47;;;;;;;18.81;57.38;100176.97;5075804;28;20410;-64
2022/11/29 05:27:40;;;;;;;5.40;3.07;;;;;;;18.81;57.44;100185.56;5058766;28;20250;-64
2022/11/29 05:30:19;;;;;;;5.77;2.97;;;;;;;18.81;57.63;100179.03;5076454;28;20429;-64
2022/11/29 05:32:51;;;;;;;7.50;3.13;;;;;;;18.82;57.40;100183.53;5041952;28;20948;-64
2022/11/29 05:35:28;;;;;;;5.47;3.20;;;;;;;18.78;57.59;100180.63;5076302;28;20910;-64
2022/11/29 05:38:01;;;;;;;8.03;2.70;;;;;;;18.78;57.47;100176.94;5075821;28;20506;-64
2022/11/29 05:40:35;;;;;;;5.40;2.97;;;;;;;18.75;57.77;100183.41;5054672;28;20430;-64
2022/11/29 05:43:09;;;;;;;7.30;2.73;;;;;;;18.77;57.61;100190.41;5056490;28;20853;-64
2022/11/29 05:45:56;;;;;;;5.30;2.87;;;;;;;18.77;57.61;100178.97;5055785;28;20398;-64
2022/11/29 05:48:43;;;;;;;6.97;2.90;;;;;;;18.79;57.54;100181.44;5060995;28;20398;-64
2022/11/29 05:51:35;;;;;;;6.40;3.10;;;;;;;18.82;57.40;100181.50;5044029;28;20412;-64
2022/11/29 05:54:11;;;;;;;15.43;2.87;;;;;;;18.81;57.65;100176.19;5056594;28;20418;-64
2022/11/29 05:57:07;;;;;;;5.10;3.20;;;;;;;18.79;57.57;100182.28;5037608;28;20769;-64
2022/11/29 05:59:33;;;;;;;5.33;2.70;;;;;;;18.77;57.76;100190.41;5038642;28;20411;-64
2022/11/29 06:02:31;;;;;;;7.03;3.20;;;;;;;18.80;57.77;100188.81;5021663;28;21045;-64
2022/11/29 06:05:13;;;;;;;7.40;3.00;;;;;;;18.78;57.69;100199.81;5034404;28;20200;-64
2022/11/29 06:08:12;;;;;;;6.13;2.83;;;;;;;18.82;57.56;100204.38;5018073;28;20843;-64
2022/11/29 06:10:38;;;;;;;6.67;3.40;;;;;;;18.79;57.55;100212.91;5020686;28;20809;-64
2022/11/29 06:13:17;;;;;;;5.97;3.13;;;;;;;18.79;57.61;100205.16;5017849;28;20423;-64
2022/11/29 06:15:47;;;;;;;5.27;2.83;;;;;;;18.79;57.74;100208.03;5033686;28;20419;-64
2022/11/29 06:18:40;;;;;;;4.93;2.90;;;;;;;18.80;57.63;100203.94;5034801;28;20471;-64
2022/11/29 06:21:12;;;;;;;4.23;2.60;;;;;;;18.79;57.70;100202.31;5035148;28;20745;-64
2022/11/29 06:23:49;;;;;;;6.83;2.90;;;;;;;18.81;57.67;100216.22;5035155;28;20399;-64
2022/11/29 06:26:40;;;;;;;5.93;2.83;;;;;;;18.78;57.95;100214.97;5035297;28;20878;-64
2022/11/29 06:29:31;;;;;;;5.80;2.90;;;;;;;18.79;57.76;100218.63;5033968;28;20406;-64
2022/11/29 06:32:13;;;;;;;6.10;2.53;;;;;;;18.81;57.80;100219.88;5035132;28;20392;-64
2022/11/29 06:34:48;;;;;;;4.60;2.50;;;;;;;18.80;57.74;100218.25;5033504;28;20415;-64
2022/11/29 06:37:33;;;;;;;4.93;2.80;;;;;;;18.80;57.53;100226.00;5033475;28;20475;-64
2022/11/29 06:39:59;;;;;;;5.10;3.13;;;;;;;18.82;57.54;100232.16;5019507;28;20450;-64
2022/11/29 06:42:24;;;;;;;4.40;2.70;;;;;;;18.80;57.67;100223.13;5054567;28;20405;-64
2022/11/29 06:44:50;;;;;;;5.67;3.20;;;;;;;18.80;57.81;100229.69;5054667;28;20683;-64
2022/11/29 06:47:31;;;;;;;6.83;2.70;;;;;;;18.81;57.62;100233.38;5053781;28;20168;-66
2022/11/29 06:49:58;;;;;;;5.40;2.57;;;;;;;18.83;57.56;100237.50;5037326;28;20171;-64
2022/11/29 06:52:32;;;;;;;5.53;2.90;;;;;;;18.80;57.82;100234.56;5031389;28;20423;-63
2022/11/29 06:55:12;;;;;;;7.10;2.77;;;;;;;18.80;57.78;100235.41;5043827;28;20461;-64
2022/11/29 06:58:03;;;;;;;6.30;3.00;;;;;;;18.82;57.62;100238.69;5073950;28;20449;-65
2022/11/29 07:01:33;;;;;;;4.83;2.93;;;;;;;18.81;57.59;100248.50;5050162;28;20457;-65
2022/11/29 07:04:01;;;;;;;5.40;2.80;;;;;;;18.78;57.82;100249.28;4983517;28;20436;-65
2022/11/29 07:06:27;;;;;;;3.83;2.40;;;;;;;18.85;57.51;100242.81;5073956;28;20471;-65
2022/11/29 07:09:09;;;;;;;5.63;2.77;;;;;;;18.83;57.71;100246.09;5073671;28;20415;-64
2022/11/29 07:11:35;;;;;;;4.10;2.30;;;;;;;18.81;57.72;100244.81;5052509;28;20426;-65
2022/11/29 07:14:01;;;;;;;4.30;2.80;;;;;;;18.82;57.62;100246.47;5053481;28;20414;-64
2022/11/29 07:16:30;;;;;;;4.27;2.53;;;;;;;18.84;57.73;100252.63;5069422;28;20183;-64
2022/11/29 07:19:08;;;;;;;6.77;3.10;;;;;;;18.83;57.48;100256.69;5073048;28;20287;-64
2022/11/29 07:21:52;;;;;;;6.97;2.77;;;;;;;18.83;57.56;100254.66;5056215;28;20429;-64
2022/11/29 07:24:50;;;;;;;5.10;2.67;;;;;;;18.84;57.79;100264.06;5072935;28;20416;-64
2022/11/29 07:27:49;;;;;;;4.97;2.50;;;;;;;18.81;57.70;100265.66;5045614;28;20422;-64
2022/11/29 07:30:22;;;;;;;5.43;2.60;;;;;;;18.81;57.99;100262.78;5069891;28;20402;-64
2022/11/29 07:33:12;;;;;;;6.80;2.87;;;;;;;18.84;57.61;100264.06;5052571;28;20418;-65
2022/11/29 07:36:05;;;;;;;5.13;2.40;;;;;;;18.81;57.56;100259.94;5069883;28;20434;-64
2022/11/29 07:38:46;;;;;;;5.87;2.73;;;;;;;18.83;57.90;100266.13;5056953;28;20469;-65
2022/11/29 07:41:16;;;;;;;3.60;2.33;;;;;;;18.83;57.68;100263.25;5071529;28;20458;-65
2022/11/29 07:43:59;;;;;;;3.93;2.30;;;;;;;18.82;57.69;100260.78;5053031;28;20496;-64
2022/11/29 07:46:24;;;;;;;5.33;2.47;;;;;;;18.85;57.55;100260.81;5071720;28;20409;-64
2022/11/29 07:48:50;;;;;;;7.00;2.73;;;;;;;18.84;57.81;100270.63;5071897;28;20410;-64
2022/11/29 07:51:15;;;;;;;3.70;2.43;;;;;;;18.82;57.71;100273.00;5072378;28;20220;-64
2022/11/29 07:53:42;;;;;;;4.57;2.57;;;;;;;18.86;57.69;100276.78;5071979;28;20642;-64
2022/11/29 07:56:15;;;;;;;5.07;2.67;;;;;;;18.84;57.59;100270.63;5053381;28;20223;-64
2022/11/29 07:58:41;;;;;;;6.60;3.30;;;;;;;18.80;57.72;100284.03;5052211;28;20442;-64
2022/11/29 08:01:06;;;;;;;4.00;2.23;;;;;;;18.82;57.62;100278.75;5032843;28;20419;-64
2022/11/29 08:03:34;;;;;;;5.40;2.10;;;;;;;18.84;57.78;100286.94;5021473;28;20183;-64
2022/11/29 08:05:59;;;;;;;4.90;2.80;;;;;;;18.84;57.58;100287.78;5052710;28;20210;-64
2022/11/29 08:08:25;;;;;;;7.83;2.60;;;;;;;18.85;57.68;100292.28;5052625;28;20414;-65
2022/11/29 08:10:50;;;;;;;6.30;2.60;;;;;;;18.87;57.71;100292.72;5051499;28;20179;-64
2022/11/29 08:13:18;;;;;;;5.87;2.57;;;;;;;18.83;57.72;100303.28;5033157;28;20532;-64
2022/11/29 08:15:44;;;;;;;5.80;3.03;;;;;;;18.84;57.77;100296.38;5045237;28;20804;-64
2022/11/29 08:18:09;;;;;;;4.70;2.70;;;;;;;18.83;57.71;100294.72;5045388;28;20454;-64
2022/11/29 08:20:35;;;;;;;4.00;2.50;;;;;;;18.88;57.70;100305.84;5033568;28;20933;-64
2022/11/29 08:23:01;;;;;;;5.87;2.40;;;;;;;18.85;57.61;100306.59;5032826;28;20534;-64
2022/11/29 08:25:27;;;;;;;4.20;2.40;;;;;;;18.85;57.22;100302.88;5049031;28;20183;-64
2022/11/29 08:27:53;;;;;;;4.30;2.20;;;;;;;18.83;57.75;100311.03;5046651;28;20515;-64
2022/11/29 08:30:21;;;;;;;4.50;2.73;;;;;;;18.82;57.81;100304.47;5015132;28;20164;-65
2022/11/29 08:32:49;;;;;;;5.20;2.43;;;;;;;18.84;57.62;100304.94;5032818;28;20466;-64
2022/11/29 08:35:16;;;;;;;5.17;2.27;;;;;;;18.87;57.58;100309.88;5044654;28;20418;-64
2022/11/29 08:37:41;;;;;;;4.13;2.27;;;;;;;18.85;57.76;100312.31;5052132;28;20447;-64
2022/11/29 08:40:07;;;;;;;3.70;2.43;;;;;;;18.84;57.87;100309.81;5052586;28;20472;-64
2022/11/29 08:42:33;;;;;;;4.03;1.80;;;;;;;18.84;57.76;100316.38;5052643;28;20179;-64
2022/11/29 08:44:58;;;;;;;5.37;2.50;;;;;;;18.85;57.84;100318.03;5052348;28;20183;-64
2022/11/29 08:47:36;;;;;;;4.13;2.33;;;;;;;18.85;57.67;100322.91;5052445;28;20148;-64
2022/11/29 08:50:05;;;;;;;3.50;2.13;;;;;;;18.85;57.78;100312.31;5041213;28;20208;-64
2022/11/29 08:55:18;;;;;;;3.87;2.30;;;;;;;18.83;57.68;100326.19;5062961;28;20971;-64
2022/11/29 08:57:44;;;;;;;4.40;2.53;;;;;;;18.87;57.68;100329.91;5043110;28;20489;-64
2022/11/29 09:00:10;;;;;;;3.40;2.23;;;;;;;18.83;57.70;100325.34;5057867;28;20507;-64
2022/11/29 09:02:36;;;;;;;4.10;2.37;;;;;;;18.83;57.72;100331.06;5059463;28;20203;-64
2022/11/29 09:05:02;;;;;;;4.00;2.60;;;;;;;18.83;57.74;100336.78;5071202;28;20987;-63
2022/11/29 09:07:27;;;;;;;6.13;3.53;;;;;;;18.62;56.74;100340.06;5065129;28;20179;-64
2022/11/29 09:09:53;;;;;;;13.40;5.90;;;;;;;18.52;57.90;100337.84;5071261;28;20474;-64
2022/11/29 09:12:18;;;;;;;11.10;6.47;;;;;;;18.70;57.77;100338.16;5082346;28;20239;-64
2022/11/29 09:14:44;;;;;;;12.43;8.00;;;;;;;19.03;58.34;100346.94;5080978;28;20520;-64
2022/11/29 09:17:09;;;;;;;14.47;6.17;;;;;;;18.99;56.34;100340.31;5067242;28;20634;-64
2022/11/29 09:19:34;;;;;;;11.23;5.00;;;;;;;18.92;55.77;100351.66;5070380;28;20642;-64
2022/11/29 09:22:00;;;;;;;8.50;4.60;;;;;;;18.92;55.61;100355.31;5075249;28;20171;-63
2022/11/29 09:24:25;;;;;;;8.27;4.43;;;;;;;18.98;55.43;100350.97;5071472;28;20294;-64
2022/11/29 09:26:51;;;;;;;8.07;4.83;;;;;;;19.14;55.54;100357.34;5069981;28;20518;-63
2022/11/29 09:29:16;;;;;;;11.03;4.63;;;;;;;19.31;55.67;100356.84;5070042;28;20593;-64
2022/11/29 09:31:43;;;;;;;8.63;4.23;;;;;;;19.62;54.71;100365.09;5070528;28;20720;-63
2022/11/29 09:34:14;;;;;;;5.50;3.20;;;;;;;19.59;54.85;100360.16;5055318;28;20233;-63
2022/11/29 09:36:41;;;;;;;10.73;3.57;;;;;;;19.49;56.52;100360.81;5070996;28;20432;-64
2022/11/29 09:39:08;;;;;;;5.87;3.60;;;;;;;19.77;57.28;100371.88;5072004;28;20456;-63
2022/11/29 09:41:59;;;;;;;6.00;3.67;;;;;;;19.76;56.43;100365.28;5062841;28;20502;-64
2022/11/29 09:44:29;;;;;;;9.03;3.43;;;;;;;19.56;57.08;100372.38;5070543;28;20478;-64
2022/11/29 09:47:30;;;;;;;11.30;3.20;;;;;;;19.48;58.32;100379.22;5071792;28;20405;-64
2022/11/29 09:50:16;;;;;;;7.30;3.00;;;;;;;19.46;59.09;100383.69;5059392;28;20421;-63
2022/11/29 09:52:46;;;;;;;7.23;3.03;;;;;;;19.53;59.49;100378.88;5055086;28;20811;-64
2022/11/29 09:55:49;;;;;;;5.43;2.53;;;;;;;19.49;59.01;100377.16;5058574;28;20812;-64
2022/11/29 09:58:19;;;;;;;5.40;3.03;;;;;;;19.41;58.48;100376.22;5068102;28;20504;-64
2022/11/29 10:00:48;;;;;;;5.80;2.87;;;;;;;19.36;58.73;100385.13;5065876;28;20916;-65
2022/11/29 10:03:33;;;;;;;7.60;3.40;;;;;;;19.40;58.74;100386.03;5036710;28;20761;-65
2022/11/29 10:06:06;;;;;;;8.70;3.63;;;;;;;19.46;58.77;100383.69;5023198;28;20446;-63
2022/11/29 10:08:34;;;;;;;7.00;2.80;;;;;;;19.47;58.26;100385.31;5036080;28;20507;-64
2022/11/29 10:11:42;;;;;;;10.50;3.63;;;;;;;19.26;58.03;100384.97;5039706;28;20474;-64
2022/11/29 10:14:16;;;;;;;7.60;3.47;;;;;;;19.10;57.38;100379.34;5064426;28;20512;-64
2022/11/29 10:17:18;;;;;;;9.60;3.40;;;;;;;18.99;56.18;100384.09;5025337;28;20437;-64
2022/11/29 10:19:50;;;;;;;7.00;4.03;;;;;;;18.95;55.73;100380.31;5066133;28;20460;-64
2022/11/29 10:22:55;;;;;;;6.90;3.93;;;;;;;18.95;55.25;100376.63;5048967;28;20457;-64
2022/11/29 10:25:57;;;;;;;9.47;3.17;;;;;;;18.90;55.41;100369.19;5014014;28;20457;-64
2022/11/29 10:28:31;;;;;;;12.60;3.37;;;;;;;18.92;55.52;100383.13;5047895;28;20482;-63
2022/11/29 10:31:22;;;;;;;6.73;3.40;;;;;;;18.91;55.28;100373.72;5041256;28;20414;-63
2022/11/29 10:33:49;;;;;;;6.07;3.23;;;;;;;18.91;55.03;100372.91;5043787;28;20444;-62
2022/11/29 10:36:24;;;;;;;6.83;3.37;;;;;;;18.90;55.62;100377.78;5068741;28;20518;-63
2022/11/29 10:38:50;;;;;;;8.57;3.40;;;;;;;18.90;55.82;100380.63;5047193;28;20456;-64
2022/11/29 10:41:19;;;;;;;19.67;4.73;;;;;;;18.92;57.26;100375.34;5033839;28;20464;-64
2022/11/29 10:43:45;;;;;;;16.00;4.20;;;;;;;18.98;57.80;100373.84;5035625;28;20183;-63
2022/11/29 10:46:16;;;;;;;14.10;3.70;;;;;;;18.99;58.44;100378.34;5057945;28;20430;-65
2022/11/29 10:48:42;;;;;;;12.30;3.90;;;;;;;19.00;58.50;100371.41;5040396;28;20249;-64
2022/11/29 10:51:15;;;;;;;11.87;3.30;;;;;;;19.00;58.25;100368.56;5042643;28;20957;-65
2022/11/29 10:53:40;;;;;;;12.43;3.00;;;;;;;19.00;58.72;100368.56;5024367;28;20199;-65
2022/11/29 10:56:22;;;;;;;15.73;3.90;;;;;;;19.05;58.53;100368.25;5037327;28;20473;-65
2022/11/29 10:58:54;;;;;;;19.03;3.83;;;;;;;19.04;58.36;100375.19;5062849;28;20241;-65
2022/11/29 11:01:19;;;;;;;16.33;4.30;;;;;;;19.08;58.37;100372.38;5066827;28;20436;-65
2022/11/29 11:03:54;;;;;;;17.10;3.80;;;;;;;19.13;58.43;100374.91;5075266;28;20869;-64
2022/11/29 11:06:25;;;;;;;15.23;3.27;;;;;;;19.15;58.36;100376.19;5041999;28;20186;-64
2022/11/29 11:08:54;;;;;;;20.63;3.63;;;;;;;19.12;57.80;100371.22;5054310;28;20478;-64
2022/11/29 11:11:37;;;;;;;13.87;3.57;;;;;;;19.07;58.99;100370.72;5060088;28;20441;-64
2022/11/29 11:14:05;;;;;;;9.83;3.07;;;;;;;19.13;58.86;100369.19;5036835;28;20508;-64
2022/11/29 11:16:30;;;;;;;9.60;2.80;;;;;;;19.09;58.70;100372.00;5070827;28;20409;-64
2022/11/29 11:18:56;;;;;;;9.20;3.50;;;;;;;19.12;58.54;100367.53;5056589;28;20458;-64
2022/11/29 11:21:23;;;;;;;15.83;3.47;;;;;;;19.10;58.76;100365.06;5048458;28;20274;-64
2022/11/29 11:24:00;;;;;;;15.07;3.63;;;;;;;19.07;58.70;100365.81;5019119;28;20230;-64
2022/11/29 11:26:26;;;;;;;9.97;2.80;;;;;;;19.09;59.01;100374.00;5066042;28;21265;-65
2022/11/29 11:28:59;;;;;;;10.87;2.83;;;;;;;19.09;58.77;100362.56;5035140;28;20410;-64
2022/11/29 11:31:26;;;;;;;8.10;3.40;;;;;;;19.06;58.69;100369.88;5022080;28;20190;-65
2022/11/29 11:33:52;;;;;;;8.40;3.20;;;;;;;19.10;58.87;100369.94;5067641;28;20418;-64
2022/11/29 11:36:27;;;;;;;7.30;2.57;;;;;;;19.11;58.83;100374.47;5074296;28;20490;-65
2022/11/29 11:38:57;;;;;;;9.73;2.97;;;;;;;19.08;58.84;100373.22;5059363;28;20214;-64
2022/11/29 11:41:22;;;;;;;14.57;3.30;;;;;;;19.06;59.02;100372.75;5048255;28;20878;-65
2022/11/29 11:43:58;;;;;;;7.70;2.60;;;;;;;19.05;58.74;100373.97;5055760;28;20476;-64
2022/11/29 11:46:46;;;;;;;7.67;2.67;;;;;;;19.10;58.77;100379.34;5039019;28;20190;-64
2022/11/29 11:49:13;;;;;;;15.10;2.63;;;;;;;19.09;58.79;100379.75;5072863;28;20421;-65
2022/11/29 11:51:40;;;;;;;11.90;3.13;;;;;;;19.09;58.67;100379.75;5064327;28;20457;-64
2022/11/29 11:54:12;;;;;;;5.97;2.80;;;;;;;19.07;58.90;100382.16;5046803;28;20414;-64
2022/11/29 11:56:38;;;;;;;7.87;2.53;;;;;;;19.07;58.82;100382.97;5036315;28;20543;-64
2022/11/29 11:59:03;;;;;;;10.53;3.90;;;;;;;19.03;58.88;100381.28;5061755;28;20480;-64
2022/11/29 12:01:35;;;;;;;10.53;3.03;;;;;;;19.03;58.92;100384.97;5062673;28;20187;-64
2022/11/29 12:04:13;;;;;;;7.33;2.33;;;;;;;19.02;58.83;100374.72;5070212;28;20236;-64